createdAt,value
2019-05-28T00:01:23.169Z,15.75
2019-05-28T00:03:55.991Z,13.80
2019-05-28T00:06:28.339Z,13.68
2019-05-28T00:09:00.721Z,12.73
2019-05-28T00:11:33.347Z,11.93
2019-05-28T00:14:05.864Z,10.58
2019-05-28T00:16:38.298Z,11.57
2019-05-28T00:19:10.571Z,11.00
2019-05-28T00:21:42.962Z,12.53
2019-05-28T00:24:16.441Z,11.75
2019-05-28T00:26:49.249Z,11.12
2019-05-28T00:29:21.809Z,11.43
2019-05-28T00:31:54.544Z,11.28
2019-05-28T00:34:27.587Z,10.23
2019-05-28T00:37:00.258Z,11.22
2019-05-28T00:39:33.414Z,10.80
2019-05-28T00:42:06.129Z,11.08
2019-05-28T00:44:38.503Z,11.97
2019-05-28T00:47:12.415Z,11.85
2019-05-28T00:49:44.651Z,11.80
2019-05-28T00:52:17.170Z,12.33
2019-05-28T00:54:49.781Z,11.88
2019-05-28T00:57:23.153Z,12.37
2019-05-28T00:59:56.255Z,11.30
2019-05-28T01:02:28.603Z,12.20
2019-05-28T01:05:01.462Z,12.60
2019-05-28T01:07:34.133Z,11.57
2019-05-28T01:10:09.434Z,12.00
2019-05-28T01:12:41.680Z,11.45
2019-05-28T01:15:14.687Z,11.55
2019-05-28T01:17:47.245Z,11.10
2019-05-28T01:20:19.826Z,11.15
2019-05-28T01:22:52.402Z,11.45
2019-05-28T01:25:24.950Z,11.57
2019-05-28T01:27:57.458Z,11.78
2019-05-28T01:30:29.776Z,11.80
2019-05-28T01:33:02.719Z,13.10
2019-05-28T01:35:35.097Z,12.00
2019-05-28T01:38:08.602Z,11.18
2019-05-28T01:40:41.258Z,12.43
2019-05-28T01:43:13.752Z,12.03
2019-05-28T01:45:46.159Z,11.73
2019-05-28T01:48:18.743Z,12.07
2019-05-28T01:50:51.514Z,12.73
2019-05-28T01:53:23.822Z,13.15
2019-05-28T01:55:56.379Z,11.73
2019-05-28T01:58:29.023Z,13.88
2019-05-28T02:01:12.219Z,12.37
2019-05-28T02:03:35.808Z,13.15
2019-05-28T02:06:08.522Z,13.50
2019-05-28T02:08:40.805Z,13.00
2019-05-28T02:11:13.025Z,13.50
2019-05-28T02:13:45.769Z,12.60
2019-05-28T02:16:18.112Z,13.35
2019-05-28T02:18:51.929Z,13.25
2019-05-28T02:21:24.392Z,13.25
2019-05-28T02:23:57.980Z,13.03
2019-05-28T02:26:31.078Z,12.37
2019-05-28T02:29:04.119Z,12.40
2019-05-28T02:31:36.679Z,12.80
2019-05-28T02:34:09.569Z,12.05
2019-05-28T02:36:42.096Z,12.53
2019-05-28T02:39:15.084Z,12.23
2019-05-28T02:41:47.990Z,13.50
2019-05-28T02:44:20.350Z,12.37
2019-05-28T02:46:53.021Z,12.63
2019-05-28T02:49:26.291Z,12.20
2019-05-28T02:51:58.965Z,13.18
2019-05-28T02:54:31.686Z,13.88
2019-05-28T02:57:14.395Z,11.93
2019-05-28T02:59:49.843Z,12.80
2019-05-28T03:02:24.949Z,12.15
2019-05-28T03:05:01.305Z,12.07
2019-05-28T03:07:34.908Z,12.47
2019-05-28T03:10:08.307Z,11.90
2019-05-28T03:12:40.839Z,12.85
2019-05-28T03:15:13.923Z,11.18
2019-05-28T03:17:48.065Z,12.18
2019-05-28T03:20:21.741Z,11.73
2019-05-28T03:22:55.356Z,11.83
2019-05-28T03:25:28.203Z,12.03
2019-05-28T03:28:00.616Z,12.03
2019-05-28T03:30:33.283Z,11.68
2019-05-28T03:33:05.765Z,11.90
2019-05-28T03:35:40.567Z,11.78
2019-05-28T03:38:14.555Z,12.43
2019-05-28T03:40:47.904Z,12.18
2019-05-28T03:43:20.171Z,11.53
2019-05-28T03:45:52.833Z,12.20
2019-05-28T03:48:25.113Z,12.45
2019-05-28T03:50:58.824Z,12.43
2019-05-28T03:53:31.161Z,12.73
2019-05-28T03:56:03.611Z,12.35
2019-05-28T03:58:36.058Z,13.10
2019-05-28T04:01:08.765Z,13.05
2019-05-28T04:03:41.167Z,13.30
2019-05-28T04:06:15.080Z,12.73
2019-05-28T04:08:47.488Z,11.88
2019-05-28T04:11:19.964Z,13.58
2019-05-28T04:13:52.190Z,13.95
2019-05-28T04:16:24.716Z,13.28
2019-05-28T04:18:57.148Z,13.43
2019-05-28T04:21:31.415Z,12.63
2019-05-28T04:26:36.800Z,12.50
2019-05-28T04:29:09.966Z,11.60
2019-05-28T04:31:42.744Z,12.20
2019-05-28T04:34:15.120Z,12.30
2019-05-28T04:36:47.638Z,12.63
2019-05-28T04:39:20.378Z,13.85
2019-05-28T04:41:52.770Z,15.03
2019-05-28T04:44:25.308Z,15.48
2019-05-28T04:46:57.786Z,14.80
2019-05-28T04:49:31.372Z,15.32
2019-05-28T04:52:05.496Z,16.05
2019-05-28T04:54:39.127Z,15.68
2019-05-28T04:57:11.484Z,15.05
2019-05-28T04:59:43.874Z,16.57
2019-05-28T05:02:16.183Z,16.70
2019-05-28T05:04:48.704Z,15.50
2019-05-28T05:07:22.882Z,15.75
2019-05-28T05:09:56.183Z,16.60
2019-05-28T05:12:30.763Z,17.27
2019-05-28T05:15:04.396Z,18.37
2019-05-28T05:17:37.045Z,20.30
2019-05-28T05:20:11.895Z,20.52
2019-05-28T05:22:44.615Z,21.02
2019-05-28T05:25:17.444Z,20.45
2019-05-28T05:30:22.738Z,20.50
2019-05-28T05:32:55.540Z,20.15
2019-05-28T05:35:29.269Z,19.52
2019-05-28T05:38:01.925Z,17.37
2019-05-28T05:40:34.476Z,16.37
2019-05-28T05:43:06.880Z,11.95
2019-05-28T05:45:39.403Z,7.60
2019-05-28T05:48:11.923Z,6.03
2019-05-28T05:50:45.376Z,5.78
2019-05-28T05:53:18.673Z,4.60
2019-05-28T05:55:51.069Z,4.80
2019-05-28T05:58:23.414Z,6.67
2019-05-28T06:00:55.767Z,5.53
2019-05-28T06:03:40.410Z,5.65
2019-05-28T06:06:05.568Z,7.28
2019-05-28T06:08:38.139Z,8.85
2019-05-28T06:11:10.677Z,7.62
2019-05-28T06:13:43.506Z,8.60
2019-05-28T06:16:16.116Z,6.67
2019-05-28T06:18:48.997Z,10.40
2019-05-28T06:21:21.511Z,7.60
2019-05-28T06:23:55.150Z,7.42
2019-05-28T06:26:27.774Z,6.45
2019-05-28T06:29:01.468Z,7.97
2019-05-28T06:31:34.091Z,6.95
2019-05-28T06:34:08.729Z,7.85
2019-05-28T06:36:41.016Z,7.12
2019-05-28T06:39:13.724Z,6.90
2019-05-28T06:41:46.213Z,4.22
2019-05-28T06:44:20.689Z,4.40
2019-05-28T06:46:53.357Z,5.30
2019-05-28T06:49:26.864Z,5.60
2019-05-28T06:51:59.405Z,5.53
2019-05-28T06:54:35.845Z,5.10
2019-05-28T06:57:22.293Z,5.42
2019-05-28T06:59:42.551Z,5.78
2019-05-28T07:02:14.876Z,6.85
2019-05-28T07:04:52.728Z,5.58
2019-05-28T07:07:25.236Z,5.28
2019-05-28T07:09:57.550Z,5.75
2019-05-28T07:12:30.109Z,5.83
2019-05-28T07:15:02.514Z,6.78
2019-05-28T07:17:37.074Z,5.60
2019-05-28T07:20:13.816Z,6.17
2019-05-28T07:22:46.197Z,5.72
2019-05-28T07:25:20.382Z,4.53
2019-05-28T07:28:09.790Z,4.30
2019-05-28T07:30:28.097Z,3.65
2019-05-28T07:33:01.954Z,4.03
2019-05-28T07:35:45.917Z,4.20
2019-05-28T07:38:12.994Z,3.75
2019-05-28T07:40:45.290Z,4.20
2019-05-28T07:43:17.639Z,3.67
2019-05-28T07:45:49.722Z,4.20
2019-05-28T07:48:23.522Z,4.05
2019-05-28T07:50:57.058Z,3.37
2019-05-28T07:53:39.612Z,3.67
2019-05-28T07:56:03.937Z,3.75
2019-05-28T07:58:38.586Z,3.75
2019-05-28T08:01:11.336Z,4.05
2019-05-28T08:03:44.621Z,3.47
2019-05-28T08:06:17.104Z,3.72
2019-05-28T08:08:50.795Z,3.35
2019-05-28T08:11:23.699Z,3.37
2019-05-28T08:13:56.896Z,3.67
2019-05-28T08:16:29.264Z,4.30
2019-05-28T08:19:01.664Z,4.22
2019-05-28T08:21:36.371Z,4.28
2019-05-28T08:24:09.530Z,4.08
2019-05-28T08:26:42.950Z,4.00
2019-05-28T08:29:15.075Z,3.85
2019-05-28T08:31:47.729Z,5.03
2019-05-28T08:34:21.916Z,4.50
2019-05-28T08:37:05.877Z,5.03
2019-05-28T08:39:33.694Z,4.87
2019-05-28T08:42:06.850Z,5.37
2019-05-28T08:44:40.191Z,6.90
2019-05-28T08:47:12.579Z,5.28
2019-05-28T08:49:45.016Z,4.78
2019-05-28T08:52:18.553Z,4.62
2019-05-28T08:54:51.998Z,7.30
2019-05-28T08:57:25.829Z,4.85
2019-05-28T08:59:58.107Z,5.22
2019-05-28T09:02:32.508Z,4.70
2019-05-28T09:05:24.695Z,4.70
2019-05-28T09:07:42.644Z,4.70
2019-05-28T09:10:17.033Z,13.03
2019-05-28T09:12:50.386Z,4.80
2019-05-28T09:15:23.236Z,4.65
2019-05-28T09:17:58.000Z,4.67
2019-05-28T09:20:34.284Z,4.17
2019-05-28T09:25:39.665Z,5.35
2019-05-28T09:28:28.417Z,4.55
2019-05-28T09:30:47.815Z,4.80
2019-05-28T09:33:23.780Z,4.60
2019-05-28T09:36:09.026Z,5.03
2019-05-28T09:38:40.701Z,4.25
2019-05-28T09:41:12.938Z,4.70
2019-05-28T09:43:46.066Z,5.05
2019-05-28T09:46:18.749Z,4.33
2019-05-28T09:48:51.561Z,4.67
2019-05-28T09:51:25.781Z,5.05
2019-05-28T09:54:00.707Z,4.58
2019-05-28T09:56:33.412Z,4.37
2019-05-28T09:59:10.273Z,4.50
2019-05-28T10:01:48.260Z,5.17
2019-05-28T10:04:44.055Z,4.92
2019-05-28T10:07:00.285Z,4.53
2019-05-28T10:09:33.298Z,4.75
2019-05-28T10:12:06.796Z,4.97
2019-05-28T10:14:44.160Z,5.05
2019-05-28T10:17:16.043Z,4.83
2019-05-28T10:19:48.549Z,4.65
2019-05-28T10:22:20.795Z,4.60
2019-05-28T10:24:52.925Z,5.15
2019-05-28T10:27:25.363Z,4.75
2019-05-28T10:29:57.593Z,5.42
2019-05-28T10:32:29.805Z,4.45
2019-05-28T10:35:04.185Z,4.78
2019-05-28T10:37:36.053Z,4.35
2019-05-28T10:40:14.897Z,4.63
2019-05-28T10:42:47.127Z,5.65
2019-05-28T10:45:21.939Z,4.80
2019-05-28T10:47:55.607Z,5.10
2019-05-28T10:50:31.539Z,5.40
2019-05-28T10:53:04.076Z,5.30
2019-05-28T10:55:36.391Z,5.08
2019-05-28T10:58:08.638Z,5.87
2019-05-28T11:00:41.869Z,5.37
2019-05-28T11:03:15.944Z,5.92
2019-05-28T11:05:49.234Z,5.65
2019-05-28T11:08:21.839Z,5.85
2019-05-28T11:10:56.202Z,5.70
2019-05-28T11:13:28.480Z,5.58
2019-05-28T11:16:00.957Z,6.30
2019-05-28T11:18:33.327Z,4.92
2019-05-28T11:21:09.560Z,5.22
2019-05-28T11:23:40.871Z,7.35
2019-05-28T11:26:13.346Z,5.62
2019-05-28T11:28:45.547Z,5.12
2019-05-28T11:31:18.904Z,7.37
2019-05-28T11:33:52.106Z,5.20
2019-05-28T11:36:27.403Z,5.50
2019-05-28T11:38:59.596Z,4.60
2019-05-28T11:41:42.043Z,5.30
2019-05-28T11:44:06.871Z,11.75
2019-05-28T11:46:40.725Z,5.95
2019-05-28T11:49:13.312Z,5.97
2019-05-28T11:51:46.022Z,4.60
2019-05-28T11:54:18.768Z,5.70
2019-05-28T11:56:51.179Z,5.17
2019-05-28T11:59:23.344Z,4.50
2019-05-28T12:01:56.590Z,4.87
2019-05-28T12:04:29.711Z,4.17
2019-05-28T12:07:02.150Z,5.00
2019-05-28T12:09:34.456Z,4.47
2019-05-28T12:12:07.657Z,4.58
2019-05-28T12:14:40.165Z,4.60
2019-05-28T12:17:12.914Z,8.98
2019-05-28T12:19:45.709Z,4.15
2019-05-28T12:22:18.168Z,4.43
2019-05-28T12:24:50.487Z,4.12
2019-05-28T12:27:22.831Z,3.95
2019-05-28T12:29:54.964Z,3.83
2019-05-28T12:32:32.955Z,3.93
2019-05-28T12:35:26.387Z,4.40
2019-05-28T12:37:48.886Z,3.80
2019-05-28T12:40:20.695Z,4.00
2019-05-28T12:42:54.823Z,3.52
2019-05-28T12:48:12.570Z,3.42
2019-05-28T12:50:34.830Z,3.22
2019-05-28T12:53:07.518Z,3.72
2019-05-28T12:55:39.724Z,3.30
2019-05-28T12:58:17.097Z,4.30
2019-05-28T13:00:49.517Z,3.60
2019-05-28T13:03:23.600Z,3.72
2019-05-28T13:05:56.034Z,3.60
2019-05-28T13:08:29.262Z,3.70
2019-05-28T13:11:02.918Z,4.00
2019-05-28T13:13:35.402Z,9.13
2019-05-28T13:16:08.457Z,3.87
2019-05-28T13:18:41.811Z,4.33
2019-05-28T13:21:14.778Z,3.98
2019-05-28T13:23:47.013Z,4.35
2019-05-28T13:26:19.511Z,4.00
2019-05-28T13:28:51.968Z,4.12
2019-05-28T13:31:25.405Z,4.22
2019-05-28T13:33:58.986Z,4.30
2019-05-28T13:36:31.316Z,4.70
2019-05-28T13:39:04.105Z,4.58
2019-05-28T13:41:37.807Z,4.37
2019-05-28T13:44:10.283Z,4.60
2019-05-28T13:46:44.840Z,4.65
2019-05-28T13:49:20.923Z,4.95
2019-05-28T13:52:11.060Z,4.80
2019-05-28T13:54:29.394Z,4.95
2019-05-28T13:57:01.740Z,4.60
2019-05-28T13:59:34.929Z,4.62
2019-05-28T14:02:09.617Z,4.60
2019-05-28T14:04:48.551Z,3.72
2019-05-28T14:07:20.892Z,4.53
2019-05-28T14:09:53.647Z,4.28
2019-05-28T14:12:26.011Z,3.62
2019-05-28T14:14:58.748Z,4.20
2019-05-28T14:17:31.128Z,5.45
2019-05-28T14:20:07.880Z,4.40
2019-05-28T14:22:40.863Z,4.30
2019-05-28T14:25:13.861Z,4.97
2019-05-28T14:27:45.969Z,4.37
2019-05-28T14:30:20.493Z,7.08
2019-05-28T14:32:53.300Z,5.15
2019-05-28T14:35:26.490Z,4.22
2019-05-28T14:37:58.914Z,4.50
2019-05-28T14:40:31.527Z,4.60
2019-05-28T14:43:04.157Z,4.70
2019-05-28T14:45:36.363Z,4.17
2019-05-28T14:48:08.685Z,4.10
2019-05-28T14:50:42.415Z,4.00
2019-05-28T14:53:14.661Z,4.78
2019-05-28T14:55:46.871Z,4.87
2019-05-28T14:58:19.077Z,4.30
2019-05-28T15:00:52.255Z,4.45
2019-05-28T15:03:27.478Z,4.40
2019-05-28T15:06:00.914Z,4.62
2019-05-28T15:08:33.190Z,4.97
2019-05-28T15:11:06.016Z,4.33
2019-05-28T15:13:38.379Z,5.13
2019-05-28T15:16:10.956Z,5.22
2019-05-28T15:18:43.482Z,5.60
2019-05-28T15:21:17.974Z,5.50
2019-05-28T15:23:50.303Z,5.20
2019-05-28T15:26:22.981Z,5.40
2019-05-28T15:28:56.446Z,5.70
2019-05-28T15:31:28.759Z,5.08
2019-05-28T15:34:04.118Z,5.10
2019-05-28T15:36:36.365Z,5.22
2019-05-28T15:39:08.727Z,5.72
2019-05-28T15:41:43.049Z,5.70
2019-05-28T15:44:15.451Z,5.58
2019-05-28T15:46:47.743Z,5.72
2019-05-28T15:49:20.063Z,5.80
2019-05-28T15:52:05.179Z,5.30
2019-05-28T15:56:58.570Z,5.08
2019-05-28T15:59:30.830Z,11.60
2019-05-28T16:02:04.440Z,5.22
2019-05-28T16:04:47.755Z,4.28
2019-05-28T16:07:23.422Z,4.72
2019-05-28T16:09:57.082Z,10.32
2019-05-28T16:15:00.950Z,4.35
2019-05-28T16:17:33.100Z,4.45
2019-05-28T16:20:07.163Z,4.40
2019-05-28T16:22:39.438Z,4.80
2019-05-28T16:25:12.118Z,4.22
2019-05-28T16:27:44.407Z,4.55
2019-05-28T16:30:18.277Z,4.72
2019-05-28T16:35:21.810Z,5.28
2019-05-28T16:37:54.055Z,4.78
2019-05-28T16:40:26.573Z,4.55
2019-05-28T16:42:58.988Z,5.55
2019-05-28T16:45:31.179Z,5.05
2019-05-28T16:48:03.516Z,4.70
2019-05-28T16:50:35.677Z,5.65
2019-05-28T16:53:08.232Z,5.78
2019-05-28T16:55:42.118Z,5.58
2019-05-28T16:58:14.529Z,5.50
2019-05-28T17:00:46.857Z,5.72
2019-05-28T17:03:19.225Z,6.30
2019-05-28T17:05:51.484Z,6.22
2019-05-28T17:08:25.763Z,6.25
2019-05-28T17:10:58.041Z,6.20
2019-05-28T17:16:03.375Z,6.30
2019-05-28T17:18:39.448Z,7.33
2019-05-28T17:21:11.928Z,6.40
2019-05-28T17:23:44.668Z,6.92
2019-05-28T17:26:17.053Z,6.60
2019-05-28T17:28:49.785Z,6.12
2019-05-28T17:33:57.241Z,5.65
2019-05-28T17:39:01.695Z,6.55
2019-05-28T17:41:37.900Z,5.42
2019-05-28T17:46:41.810Z,5.53
2019-05-28T17:49:15.110Z,5.95
2019-05-28T17:51:47.892Z,5.42
2019-05-28T17:54:20.738Z,5.67
2019-05-28T17:56:53.002Z,5.25
2019-05-28T17:59:25.884Z,4.72
2019-05-28T18:02:03.423Z,4.78
2019-05-28T18:04:35.957Z,5.03
2019-05-28T18:07:08.397Z,4.83
2019-05-28T18:09:44.475Z,5.00
2019-05-28T18:12:19.327Z,4.30
2019-05-28T18:14:53.444Z,4.95
2019-05-28T18:17:26.460Z,4.92
2019-05-28T18:19:59.446Z,5.28
2019-05-28T18:22:31.789Z,4.60
2019-05-28T18:25:05.634Z,5.00
2019-05-28T18:27:38.080Z,4.92
2019-05-28T18:30:12.133Z,5.03
2019-05-28T18:35:15.821Z,4.60
2019-05-28T18:37:47.987Z,4.87
2019-05-28T18:40:20.563Z,4.67
2019-05-28T18:42:52.867Z,4.50
2019-05-28T18:45:25.326Z,5.33
2019-05-28T18:47:57.785Z,4.37
2019-05-28T18:50:30.064Z,4.70
2019-05-28T18:53:02.670Z,5.40
2019-05-28T18:55:36.476Z,4.40
2019-05-28T18:58:08.856Z,4.83
2019-05-28T19:00:41.555Z,5.50
2019-05-28T19:03:14.308Z,4.20
2019-05-28T19:05:48.016Z,3.98
2019-05-28T19:08:21.558Z,4.22
2019-05-28T19:10:59.890Z,4.20
2019-05-28T19:13:32.354Z,4.22
2019-05-28T19:16:05.725Z,4.30
2019-05-28T19:18:40.044Z,4.20
2019-05-28T19:21:12.391Z,4.12
2019-05-28T19:23:45.104Z,3.85
2019-05-28T19:26:19.052Z,3.75
2019-05-28T19:28:51.432Z,4.25
2019-05-28T19:31:23.707Z,3.85
2019-05-28T19:33:56.608Z,4.60
2019-05-28T19:36:29.457Z,3.83
2019-05-28T19:39:02.711Z,3.87
2019-05-28T19:41:50.418Z,4.30
2019-05-28T19:44:10.598Z,3.85
2019-05-28T19:46:42.852Z,4.30
2019-05-28T19:49:14.996Z,3.58
2019-05-28T19:51:47.210Z,3.90
2019-05-28T19:54:20.084Z,3.98
2019-05-28T19:56:52.873Z,4.08
2019-05-28T19:59:25.113Z,3.58
2019-05-28T20:01:57.395Z,3.85
2019-05-28T20:04:30.187Z,4.05
2019-05-28T20:07:02.484Z,3.70
2019-05-28T20:09:35.037Z,4.00
2019-05-28T20:12:12.797Z,3.40
2019-05-28T20:14:43.078Z,4.12
2019-05-28T20:17:16.770Z,3.70
2019-05-28T20:19:51.352Z,3.65
2019-05-28T20:22:23.304Z,4.75
2019-05-28T20:24:59.123Z,3.87
2019-05-28T20:27:33.432Z,4.42
2019-05-28T20:30:11.483Z,4.28
2019-05-28T20:32:43.715Z,4.25
2019-05-28T20:35:16.135Z,3.98
2019-05-28T20:37:48.328Z,4.12
2019-05-28T20:40:20.952Z,4.50
2019-05-28T20:42:54.347Z,4.62
2019-05-28T20:45:27.828Z,4.65
2019-05-28T20:48:00.511Z,4.47
2019-05-28T20:50:33.021Z,4.67
2019-05-28T20:53:06.618Z,4.08
2019-05-28T20:55:38.986Z,3.77
2019-05-28T20:58:11.278Z,4.22
2019-05-28T21:00:43.754Z,3.92
2019-05-28T21:03:16.297Z,4.12
2019-05-28T21:05:48.666Z,4.08
2019-05-28T21:08:20.953Z,3.75
2019-05-28T21:10:53.210Z,4.08
2019-05-28T21:13:27.970Z,3.90
2019-05-28T21:16:00.146Z,4.40
2019-05-28T21:18:32.363Z,4.58
2019-05-28T21:21:04.689Z,3.90
2019-05-28T21:23:36.950Z,4.17
2019-05-28T21:26:09.313Z,4.50
2019-05-28T21:28:41.478Z,4.45
2019-05-28T21:31:13.839Z,4.33
2019-05-28T21:33:46.138Z,4.62
2019-05-28T21:36:18.688Z,4.55
2019-05-28T21:38:51.186Z,4.28
2019-05-28T21:41:23.426Z,4.12
2019-05-28T21:43:55.917Z,4.80
2019-05-28T21:46:28.493Z,4.80
2019-05-28T21:49:00.926Z,4.95
2019-05-28T21:51:33.042Z,5.12
2019-05-28T21:54:05.258Z,4.97
2019-05-28T21:56:37.572Z,4.85
2019-05-28T21:59:13.514Z,5.20
2019-05-28T22:01:47.030Z,6.00
2019-05-28T22:04:19.314Z,6.00
2019-05-28T22:06:51.481Z,5.75
2019-05-28T22:09:23.867Z,6.17
2019-05-28T22:11:57.700Z,6.67
2019-05-28T22:14:32.040Z,6.67
2019-05-28T22:17:05.490Z,6.25
2019-05-28T22:19:39.078Z,6.28
2019-05-28T22:22:11.553Z,6.20
2019-05-28T22:24:44.214Z,6.40
2019-05-28T22:27:16.572Z,6.25
2019-05-28T22:29:48.976Z,6.03
2019-05-28T22:32:21.310Z,5.80
2019-05-28T22:34:53.506Z,6.53
2019-05-28T22:37:25.930Z,6.12
2019-05-28T22:39:59.340Z,6.72
2019-05-28T22:42:32.756Z,6.35
2019-05-28T22:45:07.517Z,6.53
2019-05-28T22:47:39.750Z,6.47
2019-05-28T22:50:21.876Z,7.00
2019-05-28T22:52:47.263Z,6.95
2019-05-28T22:55:19.841Z,7.17
2019-05-28T22:57:52.373Z,6.37
2019-05-28T23:00:27.390Z,6.65
2019-05-28T23:03:00.834Z,6.78
2019-05-28T23:05:33.475Z,6.78
2019-05-28T23:08:06.209Z,6.35
2019-05-28T23:10:38.537Z,6.50
2019-05-28T23:13:11.243Z,7.05
2019-05-28T23:15:44.714Z,6.45
2019-05-28T23:18:17.086Z,6.67
2019-05-28T23:20:50.278Z,6.17
2019-05-28T23:23:22.608Z,6.28
2019-05-28T23:25:54.842Z,6.30
2019-05-28T23:28:27.123Z,6.67
2019-05-28T23:30:59.668Z,6.40
2019-05-28T23:33:32.076Z,6.45
2019-05-28T23:36:04.732Z,6.55
2019-05-28T23:38:36.823Z,6.30
2019-05-28T23:41:09.451Z,6.12
2019-05-28T23:43:41.793Z,6.22
2019-05-28T23:46:14.422Z,6.15
2019-05-28T23:48:50.275Z,6.22
2019-05-28T23:51:22.387Z,6.10
2019-05-28T23:53:54.475Z,6.55
2019-05-28T23:56:27.017Z,6.37
2019-05-28T23:58:59.565Z,6.22
